Disclaimer

Please do not use the information listed here in-flight or in-navigation, as they are not provided to us by the airports but are provided by volunteers, so they might be outdated.

Search


Regions


Airport information page

Radio informations:
Tower (TWR) - 118.3 MHz
PMSV - 344.6 MHz
MIL OPS - 131.4 MHz
VFR ADVISORY - 121.0 MHz
INTL AIR - 126.9 MHz
Ground (GND) - 121.9 MHz
RDO - 122.5 MHz
DEP - 119.9 MHz
Clearance delivery - 121.3 MHz
Automatic Terminal Information Service (ATIS) - 114.8 MHz
ARR - 119.5 MHz

Airport informations:
Latitude: 49° 54' 36.13" N
Longitude: 097° 14' 23.59" W
Elevation: 783 feet - 239 meters
Operating hours: N/A
Operating agency: Military-civil joint use airport
Timezone: Second Sunday in March at 0200 to first Sunday in November at 0200 local time (Exception Arizona and that portion of Indiana in the Eastern Time Zone)
Fuel: JP-4, Wide cut turbine fuel MIL Spec T-5624

100/130 MIL Spec, low lead, aviation gasoline (BLUE)

Runway information:
07/25 - 4500 x 200 feet< - >1372 x 61 meters
13/31 - 8700 x 200 feet< - >2652 x 61 meters
18/36 - 11000 x 200 feet< - >3353 x 61 meters

Recent METARs:
CYWG 181700Z 03010KT 5SM -SN BKN020 OVC030 M09/M13 A3007 RMK SC6SC2 SLP206
CYWG 181700Z 03010KT 5SM -SN BKN020 OVC030 M09/M13 A3007 RMK SC6SC2 SLP206
CYWG 181800Z 03010KT 4SM -SN BKN015 OVC030 M09/M14 A3007 RMK SC5SC3 SLP204

Airport on the map: